Time;durP1;ratioP1;P1;durP2;ratioP2;P2;SDS_P1;SDS_P2;PMS_P1;PMS_P2;Temp;Humidity;BMP_temperature;BMP_pressure;BME280_temperature;BME280_humidity;BME280_pressure;Samples;Min_cycle;Max_cycle;Signal;HPM_P1;HPM_P2
2022/05/09 00:00:23;;;;;;;10.80;8.23;;;;;;;16.90;60.38;101376.75;4126778;28;20519;-55
2022/05/09 00:02:26;;;;;;;15.05;8.65;;;;;;;16.91;60.36;101375.88;4146861;28;20537;-55
2022/05/09 00:04:31;;;;;;;13.45;8.75;;;;;;;16.89;60.67;101372.34;4147158;28;20034;-54
2022/05/09 00:06:34;;;;;;;11.48;9.07;;;;;;;16.82;60.78;101365.28;4148895;28;20042;-55
2022/05/09 00:08:37;;;;;;;14.95;9.23;;;;;;;16.85;60.79;101381.97;4116052;28;20045;-54
2022/05/09 00:10:41;;;;;;;10.55;8.10;;;;;;;16.78;60.39;101367.06;4147344;28;20554;-55
2022/05/09 00:12:44;;;;;;;15.13;8.82;;;;;;;16.75;60.56;101367.03;4149631;28;20515;-55
2022/05/09 00:14:47;;;;;;;13.98;9.13;;;;;;;16.72;60.90;101372.28;4144006;28;20041;-55
2022/05/09 00:16:51;;;;;;;11.68;8.88;;;;;;;16.72;60.92;101367.03;4149054;28;20125;-55
2022/05/09 00:18:54;;;;;;;10.82;8.77;;;;;;;16.70;60.77;101361.75;4149681;28;20129;-55
2022/05/09 00:20:58;;;;;;;16.60;8.90;;;;;;;16.71;61.03;101362.66;4156029;28;20046;-55
2022/05/09 00:23:01;;;;;;;11.57;9.50;;;;;;;16.69;60.32;101360.03;4150100;28;20121;-54
2022/05/09 00:25:05;;;;;;;13.43;9.07;;;;;;;16.66;60.94;101372.25;4152648;28;20049;-56
2022/05/09 00:27:08;;;;;;;14.95;8.77;;;;;;;16.72;60.87;101365.28;4138429;28;20457;-55
2022/05/09 00:29:13;;;;;;;13.52;9.70;;;;;;;16.63;61.03;101373.13;4137074;28;20117;-56
2022/05/09 00:31:16;;;;;;;16.02;9.57;;;;;;;16.58;61.08;101366.97;4149843;28;20125;-56
2022/05/09 00:33:19;;;;;;;12.27;9.27;;;;;;;16.48;61.57;101373.06;4138796;28;20108;-55
2022/05/09 00:35:22;;;;;;;13.65;9.82;;;;;;;16.54;61.00;101383.56;4140621;28;20042;-55
2022/05/09 00:37:26;;;;;;;11.70;9.43;;;;;;;16.48;61.20;101373.06;4160037;28;20124;-55
2022/05/09 00:39:29;;;;;;;11.35;8.88;;;;;;;16.43;61.68;101370.41;4154695;28;20034;-55
2022/05/09 00:41:34;;;;;;;12.85;9.43;;;;;;;16.48;61.61;101373.06;4149491;28;20133;-55
2022/05/09 00:43:39;;;;;;;15.27;9.73;;;;;;;16.46;61.54;101373.06;4147950;28;20403;-56
2022/05/09 00:45:42;;;;;;;12.20;9.57;;;;;;;16.40;61.54;101381.78;4144304;28;20044;-54
2022/05/09 00:47:45;;;;;;;13.95;8.75;;;;;;;16.39;61.62;101385.25;4148723;28;20057;-55
2022/05/09 00:49:51;;;;;;;12.30;9.85;;;;;;;16.42;61.75;101389.66;4150251;28;20045;-55
2022/05/09 00:51:59;;;;;;;15.32;10.07;;;;;;;16.44;61.54;101379.16;4148649;28;20069;-55
2022/05/09 00:54:04;;;;;;;16.02;10.57;;;;;;;16.40;61.52;101379.16;4156993;28;20037;-55
2022/05/09 00:56:14;;;;;;;12.77;9.68;;;;;;;16.32;61.67;101386.09;4138646;28;20108;-54
2022/05/09 00:58:22;;;;;;;13.15;9.88;;;;;;;16.28;61.59;101381.72;4148353;28;20442;-55
2022/05/09 01:00:25;;;;;;;14.48;10.27;;;;;;;16.23;62.12;101380.81;4143022;28;20042;-55
2022/05/09 01:02:29;;;;;;;14.10;10.55;;;;;;;16.23;62.12;101384.28;4136459;28;20527;-55
2022/05/09 01:04:41;;;;;;;11.50;9.38;;;;;;;16.21;62.06;101377.31;4147877;28;20048;-56
2022/05/09 01:06:44;;;;;;;13.95;9.38;;;;;;;16.20;62.20;101384.28;4143181;28;20037;-55
2022/05/09 01:08:47;;;;;;;11.00;9.77;;;;;;;16.20;62.13;101378.16;4148200;28;20480;-55
2022/05/09 01:10:52;;;;;;;14.48;10.05;;;;;;;16.09;62.01;101374.59;4134959;28;20086;-54
2022/05/09 01:12:55;;;;;;;14.55;10.15;;;;;;;16.08;62.04;101375.44;4130656;28;20403;-56
2022/05/09 01:15:02;;;;;;;12.93;9.65;;;;;;;16.08;62.56;101378.06;4148575;28;20033;-54
2022/05/09 01:17:05;;;;;;;13.20;10.00;;;;;;;16.08;62.62;101372.81;4146146;28;20128;-56
2022/05/09 01:19:25;;;;;;;14.32;9.80;;;;;;;16.05;62.26;101374.56;4147460;28;20092;-56
2022/05/09 01:21:32;;;;;;;15.52;8.73;;;;;;;16.02;62.56;101376.31;4127164;28;20491;-56
2022/05/09 01:23:35;;;;;;;16.70;10.32;;;;;;;15.98;62.44;101374.53;4127835;28;20057;-56
2022/05/09 01:25:40;;;;;;;12.32;9.80;;;;;;;15.98;62.75;101382.41;4142346;28;20121;-56
2022/05/09 01:27:46;;;;;;;13.35;9.05;;;;;;;15.97;62.22;101381.50;4139532;28;20039;-56
2022/05/09 01:29:55;;;;;;;15.50;10.40;;;;;;;15.92;62.90;101375.38;4145355;28;20038;-56
2022/05/09 01:31:58;;;;;;;12.05;9.98;;;;;;;15.87;62.27;101383.22;4131954;28;20043;-56
2022/05/09 01:34:02;;;;;;;9.23;7.67;;;;;;;15.81;63.23;101377.03;4118375;28;20412;-55
2022/05/09 01:36:10;;;;;;;10.88;9.23;;;;;;;15.85;62.17;101381.44;4148114;28;20348;-56
2022/05/09 01:38:23;;;;;;;13.00;10.02;;;;;;;15.81;62.27;101372.69;4148618;28;20066;-54
2022/05/09 01:40:26;;;;;;;15.00;9.73;;;;;;;15.89;62.42;101380.59;4132084;28;20133;-54
2022/05/09 01:42:29;;;;;;;12.60;8.88;;;;;;;15.86;62.51;101378.81;4146253;28;20129;-56
2022/05/09 01:44:32;;;;;;;12.45;9.60;;;;;;;15.77;62.74;101385.69;4158998;28;20069;-56
2022/05/09 01:49:29;;;;;;;13.90;8.70;;;;;;;15.73;62.48;101378.72;4156101;28;20128;-55
2022/05/09 01:51:20;;;;;;;14.60;9.60;;;;;;;15.65;62.50;101390.00;4140057;28;20046;-56
2022/05/09 01:53:25;;;;;;;14.32;10.00;;;;;;;15.70;62.37;101380.41;4151283;28;20092;-54
2022/05/09 01:55:28;;;;;;;16.00;9.57;;;;;;;15.54;63.40;101386.41;4155389;28;20045;-54
2022/05/09 01:57:31;;;;;;;16.40;10.65;;;;;;;15.55;63.31;101390.78;4144477;28;20041;-55
2022/05/09 01:59:34;;;;;;;14.10;9.80;;;;;;;15.50;62.64;101389.88;4152890;28;20052;-54
2022/05/09 02:01:40;;;;;;;14.45;9.88;;;;;;;15.51;63.51;101394.25;4128719;28;20046;-54
2022/05/09 02:03:44;;;;;;;13.05;9.55;;;;;;;15.49;63.08;101393.34;4146186;28;20045;-54
2022/05/09 02:05:51;;;;;;;12.95;9.00;;;;;;;15.39;63.17;101395.03;4147969;28;20483;-54
2022/05/09 02:07:54;;;;;;;14.60;9.73;;;;;;;15.38;63.39;101393.25;4145950;28;20049;-55
2022/05/09 02:09:58;;;;;;;17.10;9.38;;;;;;;15.31;63.06;101394.06;4148776;28;20068;-56
2022/05/09 02:12:02;;;;;;;;;;;;;;;15.17;63.68;101396.53;4150195;28;20491;-55
2022/05/09 02:14:05;;;;;;;14.40;9.25;;;;;;;15.29;62.92;101395.78;4146606;28;19928;-55
2022/05/09 02:16:08;;;;;;;15.40;9.32;;;;;;;15.29;63.01;101393.19;4135818;28;20132;-56
2022/05/09 02:18:11;;;;;;;12.48;9.55;;;;;;;15.26;63.58;101400.97;4146027;28;20073;-54
2022/05/09 02:20:14;;;;;;;14.07;9.63;;;;;;;15.24;63.75;101389.63;4145274;28;20507;-57
2022/05/09 02:22:18;;;;;;;13.20;9.45;;;;;;;15.23;63.12;101398.31;4146720;28;20038;-54
2022/05/09 02:24:21;;;;;;;12.57;8.35;;;;;;;15.17;62.88;101394.81;4145106;28;20046;-56
2022/05/09 02:26:25;;;;;;;13.52;8.82;;;;;;;15.17;62.71;101386.94;4149594;28;20530;-56
2022/05/09 02:28:28;;;;;;;12.98;8.88;;;;;;;15.14;62.98;101388.63;4143715;28;20077;-54
2022/05/09 02:30:31;;;;;;;13.32;10.30;;;;;;;15.18;63.71;101387.81;4147138;28;20041;-54
2022/05/09 02:32:34;;;;;;;13.23;9.40;;;;;;;15.14;63.12;101381.69;4146609;28;20596;-54
2022/05/09 02:34:38;;;;;;;9.27;8.25;;;;;;;15.15;63.31;101387.78;4134873;28;20132;-55
2022/05/09 02:36:41;;;;;;;13.70;9.35;;;;;;;15.11;63.20;101389.50;4150095;28;20038;-55
2022/05/09 02:38:43;;;;;;;12.98;8.70;;;;;;;15.07;63.26;101389.44;4151931;28;20050;-55
2022/05/09 02:40:46;;;;;;;14.13;9.43;;;;;;;15.12;62.85;101390.38;4155318;28;20095;-54
2022/05/09 02:42:51;;;;;;;10.68;8.77;;;;;;;15.01;63.17;101385.03;4139053;28;20034;-54
2022/05/09 02:44:54;;;;;;;13.45;9.02;;;;;;;14.98;63.62;101387.59;4147199;28;20033;-54
2022/05/09 02:46:57;;;;;;;18.30;9.60;;;;;;;14.99;63.96;101392.84;4145883;28;20124;-56
2022/05/09 02:49:02;;;;;;;13.27;8.18;;;;;;;14.98;63.60;101392.81;4146848;28;20050;-55
2022/05/09 02:51:06;;;;;;;19.10;8.85;;;;;;;15.04;63.20;101390.31;4139397;28;20515;-56
2022/05/09 02:53:10;;;;;;;13.23;9.20;;;;;;;15.04;63.51;101394.63;4143788;28;20537;-55
2022/05/09 02:55:13;;;;;;;14.73;9.15;;;;;;;14.94;64.06;101404.16;4147307;28;20037;-56
2022/05/09 02:57:16;;;;;;;14.80;9.18;;;;;;;14.95;63.81;101393.69;4137864;28;20113;-55
2022/05/09 02:59:20;;;;;;;11.63;9.13;;;;;;;14.91;64.16;101397.13;4141672;28;20065;-56
2022/05/09 03:01:23;;;;;;;14.00;9.48;;;;;;;14.90;63.94;101400.59;4131750;28;20097;-56
2022/05/09 03:05:48;;;;;;;17.65;9.30;;;;;;;14.89;63.50;101396.22;4146763;28;20061;-56
2022/05/09 03:07:53;;;;;;;12.65;9.55;;;;;;;14.89;63.83;101396.22;4142115;28;20034;-54
2022/05/09 03:09:56;;;;;;;14.18;9.48;;;;;;;14.87;63.53;101399.72;4156454;28;20060;-55
2022/05/09 03:11:59;;;;;;;14.88;9.70;;;;;;;14.82;64.02;101402.25;4155953;28;20413;-55
2022/05/09 03:14:01;;;;;;;15.38;9.38;;;;;;;14.79;63.97;101396.97;4146402;28;20070;-54
2022/05/09 03:16:07;;;;;;;14.15;10.13;;;;;;;14.76;64.01;101389.09;4130048;28;20038;-55
2022/05/09 03:18:11;;;;;;;15.77;8.43;;;;;;;14.76;63.84;101395.22;4151862;28;20124;-55
2022/05/09 03:20:14;;;;;;;13.43;9.00;;;;;;;14.73;64.06;101397.78;4153934;28;20688;-54
2022/05/09 03:22:17;;;;;;;15.90;9.13;;;;;;;14.72;64.13;101395.16;4159398;28;20121;-56
2022/05/09 03:24:20;;;;;;;18.85;9.40;;;;;;;14.82;63.51;101395.28;4128057;28;20038;-56
2022/05/09 03:26:23;;;;;;;11.35;8.18;;;;;;;14.78;63.95;101390.88;4114068;28;20125;-56
2022/05/09 03:28:27;;;;;;;15.27;9.68;;;;;;;14.84;64.13;101392.69;4148706;28;20041;-55
2022/05/09 03:30:30;;;;;;;11.48;9.07;;;;;;;14.78;63.51;101387.38;4142860;28;20042;-55
2022/05/09 03:32:35;;;;;;;15.10;9.55;;;;;;;14.79;64.20;101389.13;4155852;28;20041;-56
2022/05/09 03:34:38;;;;;;;12.77;9.23;;;;;;;14.74;63.97;101390.81;4155541;28;20226;-55
2022/05/09 03:36:43;;;;;;;13.88;9.63;;;;;;;14.75;63.57;101392.59;4153749;28;20090;-56
2022/05/09 03:38:46;;;;;;;12.93;8.60;;;;;;;14.71;63.53;101396.91;4150603;28;20465;-54
2022/05/09 03:40:49;;;;;;;11.50;9.02;;;;;;;14.70;64.29;101394.25;4148641;28;20121;-56
2022/05/09 03:42:52;;;;;;;12.38;9.18;;;;;;;14.67;64.29;101395.09;4150363;28;20117;-56
2022/05/09 03:44:54;;;;;;;10.23;8.43;;;;;;;14.66;64.09;101396.84;4157182;28;20450;-54
2022/05/09 03:46:58;;;;;;;15.02;8.95;;;;;;;14.66;64.35;101388.13;4149778;28;20042;-56
2022/05/09 03:49:04;;;;;;;13.15;8.65;;;;;;;14.65;64.63;101391.59;4149152;28;20523;-55
2022/05/09 03:51:07;;;;;;;16.88;8.60;;;;;;;14.69;64.46;101395.09;4158971;28;20057;-56
2022/05/09 03:53:10;;;;;;;12.60;9.70;;;;;;;14.69;64.31;101395.09;4150710;28;20059;-55
2022/05/09 03:55:13;;;;;;;14.15;8.93;;;;;;;14.65;64.40;101395.06;4149718;28;20045;-55
2022/05/09 03:57:16;;;;;;;17.63;8.38;;;;;;;14.64;64.35;101395.94;4149632;28;20034;-55
2022/05/09 03:59:22;;;;;;;12.10;9.10;;;;;;;14.69;64.09;101396.00;4149211;28;20053;-56
2022/05/09 04:01:25;;;;;;;15.05;9.25;;;;;;;14.64;64.28;101401.16;4133285;28;20061;-55
2022/05/09 04:03:28;;;;;;;13.50;9.75;;;;;;;14.66;64.56;101390.75;4150956;28;20089;-55
2022/05/09 04:05:33;;;;;;;13.63;9.43;;;;;;;14.74;64.47;101401.28;4156163;28;20038;-54
2022/05/09 04:07:36;;;;;;;10.38;7.75;;;;;;;14.64;64.71;101403.78;4136141;28;20407;-56
2022/05/09 04:09:39;;;;;;;14.02;9.15;;;;;;;14.63;64.60;101409.91;4148713;28;20041;-56
2022/05/09 04:11:42;;;;;;;13.73;9.35;;;;;;;14.67;64.30;101397.72;4149991;28;20557;-56
2022/05/09 04:13:46;;;;;;;13.73;9.95;;;;;;;14.65;64.47;101408.16;4149210;28;20052;-56
2022/05/09 04:18:17;;;;;;;16.77;8.98;;;;;;;14.61;64.53;101411.59;4149375;28;20041;-57
2022/05/09 04:20:21;;;;;;;13.00;9.35;;;;;;;14.64;64.77;101408.16;4156068;28;20042;-59
2022/05/09 04:22:25;;;;;;;16.40;9.23;;;;;;;14.64;64.37;101411.63;4150283;28;20145;-55
2022/05/09 04:24:28;;;;;;;13.18;8.85;;;;;;;14.66;64.11;101412.53;4137753;28;20141;-55
2022/05/09 04:26:32;;;;;;;13.25;7.63;;;;;;;14.65;64.32;101413.41;4140748;28;20052;-54
2022/05/09 04:28:35;;;;;;;11.00;8.65;;;;;;;14.64;64.67;101422.09;4136103;28;20129;-54
2022/05/09 04:30:39;;;;;;;14.02;9.15;;;;;;;14.72;65.12;101419.59;4132380;28;20133;-54
2022/05/09 04:32:42;;;;;;;11.52;9.27;;;;;;;14.73;65.13;101423.09;4149582;28;20046;-55
2022/05/09 04:34:45;;;;;;;13.65;10.02;;;;;;;14.77;64.59;101424.88;4144836;28;20539;-53
2022/05/09 04:36:47;;;;;;;12.90;9.30;;;;;;;14.82;64.73;101423.19;4148269;28;20044;-55
2022/05/09 04:38:52;;;;;;;14.02;9.95;;;;;;;14.82;64.75;101425.81;4154113;28;20040;-54
2022/05/09 04:40:56;;;;;;;14.93;9.18;;;;;;;14.81;64.05;101418.84;4151854;28;20069;-56
2022/05/09 04:43:00;;;;;;;11.50;9.48;;;;;;;14.76;64.51;101424.03;4140793;28;20129;-56
2022/05/09 04:45:04;;;;;;;12.60;8.43;;;;;;;14.75;64.30;101427.50;4146384;28;20061;-56
2022/05/09 04:47:08;;;;;;;12.23;8.50;;;;;;;14.79;64.03;101425.78;4147333;28;20045;-57
2022/05/09 04:49:10;;;;;;;10.20;8.43;;;;;;;14.86;63.96;101426.75;4149791;28;20037;-57
2022/05/09 04:51:16;;;;;;;12.45;8.73;;;;;;;14.82;64.38;101433.66;4163619;28;20040;-57
2022/05/09 04:53:19;;;;;;;13.57;9.50;;;;;;;14.84;64.58;101426.72;4150599;28;20040;-56
2022/05/09 04:55:24;;;;;;;11.70;9.07;;;;;;;14.86;64.09;101429.34;4132219;28;20054;-57
2022/05/09 04:57:27;;;;;;;13.25;9.00;;;;;;;14.91;64.37;101425.94;4146718;28;20052;-56
2022/05/09 04:59:29;;;;;;;11.52;8.65;;;;;;;14.88;64.16;101425.00;4132469;28;20045;-54
2022/05/09 05:01:32;;;;;;;12.85;9.48;;;;;;;14.85;64.08;101433.72;4149244;28;20038;-56
2022/05/09 05:03:35;;;;;;;16.17;9.63;;;;;;;14.89;63.67;101438.09;4149834;28;20044;-54
2022/05/09 05:05:39;;;;;;;15.80;10.15;;;;;;;14.95;64.22;101437.31;4149758;28;20519;-55
2022/05/09 05:07:42;;;;;;;16.33;9.82;;;;;;;14.90;64.70;101434.66;4136904;28;20150;-55
2022/05/09 05:09:45;;;;;;;13.13;8.93;;;;;;;14.92;64.48;101443.41;4157441;28;20041;-57
2022/05/09 05:11:49;;;;;;;11.95;8.25;;;;;;;14.92;64.22;101440.78;4130481;28;20058;-54
2022/05/09 05:13:52;;;;;;;11.50;8.52;;;;;;;14.91;64.34;101441.66;4139403;28;20057;-55
2022/05/09 05:15:56;;;;;;;12.65;8.88;;;;;;;14.95;64.92;101443.44;4157430;28;20046;-55
2022/05/09 05:18:00;;;;;;;9.75;8.00;;;;;;;14.98;64.04;101439.97;4165870;28;20048;-56
2022/05/09 05:20:04;;;;;;;12.15;7.68;;;;;;;15.01;64.55;101445.25;4153856;28;20046;-56
2022/05/09 05:22:08;;;;;;;19.23;10.27;;;;;;;15.06;64.39;101446.19;4149479;28;20435;-56
2022/05/09 05:24:11;;;;;;;13.38;9.05;;;;;;;15.21;63.48;101449.84;4149239;28;20129;-55
2022/05/09 05:26:14;;;;;;;13.30;9.85;;;;;;;15.24;63.61;101448.13;4148231;28;20042;-55
2022/05/09 05:28:19;;;;;;;14.23;9.98;;;;;;;15.23;63.27;101451.63;4148299;28;20639;-56
2022/05/09 05:30:22;;;;;;;13.65;9.07;;;;;;;15.24;63.08;101455.09;4149452;28;20061;-56
2022/05/09 05:32:27;;;;;;;15.45;10.27;;;;;;;15.27;63.14;101450.75;4157345;28;20041;-57
2022/05/09 05:34:30;;;;;;;16.23;10.23;;;;;;;15.30;63.03;101456.06;4131788;28;20089;-56
2022/05/09 05:36:33;;;;;;;12.35;8.50;;;;;;;15.26;63.36;101459.50;4160696;28;20087;-57
2022/05/09 05:38:36;;;;;;;18.70;10.00;;;;;;;15.32;63.48;101451.72;4156879;28;20052;-57
2022/05/09 05:40:38;;;;;;;15.00;10.48;;;;;;;15.43;63.60;101446.56;4142180;28;20141;-55
2022/05/09 05:42:48;;;;;;;10.80;8.85;;;;;;;15.45;62.89;101457.06;4153306;28;20064;-57
2022/05/09 05:44:52;;;;;;;13.27;9.07;;;;;;;15.53;62.67;101460.66;4150563;28;20081;-56
2022/05/09 05:46:55;;;;;;;19.20;9.40;;;;;;;15.50;62.56;101465.88;4162249;28;20044;-57
2022/05/09 05:49:02;;;;;;;16.80;10.27;;;;;;;15.54;62.73;101467.66;4155399;28;20041;-56
2022/05/09 05:51:05;;;;;;;16.33;9.45;;;;;;;15.55;63.23;101461.56;4148368;28;20038;-56
2022/05/09 05:53:09;;;;;;;15.23;9.90;;;;;;;15.64;62.95;101466.88;4157277;28;20076;-57
2022/05/09 05:55:12;;;;;;;15.57;9.70;;;;;;;15.68;62.90;101458.19;4137447;28;20038;-57
2022/05/09 05:57:21;;;;;;;14.70;9.02;;;;;;;15.73;62.99;101460.84;4157029;28;20033;-57
2022/05/09 05:59:25;;;;;;;15.70;10.30;;;;;;;15.88;62.24;101463.63;4165316;28;20517;-56
2022/05/09 06:01:33;;;;;;;16.23;9.32;;;;;;;15.84;62.16;101461.84;4157062;28;20061;-56
2022/05/09 06:03:38;;;;;;;17.38;10.38;;;;;;;15.94;61.95;101460.16;4155773;28;20037;-56
2022/05/09 06:05:40;;;;;;;15.05;9.50;;;;;;;15.99;62.11;101463.72;4158843;28;20044;-57
2022/05/09 06:07:44;;;;;;;12.15;9.57;;;;;;;16.04;62.12;101466.38;4150434;28;20044;-56
2022/05/09 06:09:49;;;;;;;18.98;9.73;;;;;;;16.09;61.62;101469.03;4152734;28;20427;-57
2022/05/09 06:11:51;;;;;;;;;;;;;;;16.03;61.73;101469.84;4149044;28;20037;-57
2022/05/09 06:13:54;;;;;;;17.83;10.27;;;;;;;16.20;61.19;101465.63;4131252;28;19922;-56
2022/05/09 06:15:57;;;;;;;13.32;9.82;;;;;;;16.22;60.55;101457.75;4131160;28;20042;-57
2022/05/09 06:18:03;;;;;;;17.00;10.70;;;;;;;16.34;60.44;101470.06;4147424;28;20046;-55
2022/05/09 06:20:09;;;;;;;15.45;10.48;;;;;;;16.32;60.47;101462.19;4156253;28;20053;-56
2022/05/09 06:22:12;;;;;;;13.15;10.32;;;;;;;16.33;60.92;101469.22;4163843;28;20048;-55
2022/05/09 06:24:15;;;;;;;14.25;8.77;;;;;;;16.35;60.54;101467.50;4155030;28;20041;-56
2022/05/09 06:26:20;;;;;;;16.88;10.77;;;;;;;16.43;60.27;101466.63;4148458;28;20049;-56
2022/05/09 06:28:24;;;;;;;18.45;10.23;;;;;;;16.53;60.38;101471.09;4148425;28;20403;-54
2022/05/09 06:30:27;;;;;;;14.27;9.23;;;;;;;16.45;60.82;101470.16;4147667;28;20049;-54
2022/05/09 06:32:30;;;;;;;15.48;9.95;;;;;;;16.55;60.47;101471.97;4141915;28;20034;-55
2022/05/09 06:34:34;;;;;;;19.60;11.60;;;;;;;16.63;60.11;101472.91;4155260;28;20038;-55
2022/05/09 06:36:38;;;;;;;10.93;8.50;;;;;;;16.62;60.50;101473.75;4144696;28;20520;-56
2022/05/09 06:38:41;;;;;;;15.98;9.80;;;;;;;16.83;59.15;101472.13;4164498;28;20137;-57
2022/05/09 06:40:44;;;;;;;20.65;10.57;;;;;;;16.84;59.44;101480.00;4155751;28;20043;-56
2022/05/09 06:42:51;;;;;;;15.70;9.67;;;;;;;16.80;59.75;101475.59;4156147;28;20076;-52
2022/05/09 06:44:55;;;;;;;17.23;10.50;;;;;;;16.91;59.42;101478.31;4140397;28;20129;-55
2022/05/09 06:46:57;;;;;;;15.70;9.35;;;;;;;16.90;59.22;101477.41;4148839;28;20064;-57
2022/05/09 06:49:01;;;;;;;12.07;8.73;;;;;;;16.99;59.47;101468.69;4152288;28;20038;-53
2022/05/09 06:51:05;;;;;;;20.17;11.60;;;;;;;17.21;59.03;101476.66;4147457;28;20045;-56
2022/05/09 06:53:09;;;;;;;18.80;11.45;;;;;;;17.11;58.60;101481.00;4129722;28;20492;-55
2022/05/09 06:55:21;;;;;;;16.13;10.30;;;;;;;17.08;58.81;101476.63;4149802;28;20119;-54
2022/05/09 06:57:26;;;;;;;15.02;10.23;;;;;;;17.13;59.40;101479.28;4147789;28;20042;-52
2022/05/09 06:59:31;;;;;;;19.05;9.95;;;;;;;17.26;58.78;101472.31;4136013;28;20124;-63
2022/05/09 07:01:35;;;;;;;14.35;9.07;;;;;;;17.27;58.55;101472.31;4134662;28;20051;-63
2022/05/09 07:03:38;;;;;;;15.10;9.88;;;;;;;17.31;58.93;101475.81;4136088;28;20133;-62
2022/05/09 07:05:44;;;;;;;14.57;10.30;;;;;;;17.38;59.08;101476.72;4130061;28;20129;-61
2022/05/09 07:07:49;;;;;;;14.05;9.73;;;;;;;17.43;58.35;101481.13;4143218;28;20495;-62
2022/05/09 07:09:52;;;;;;;;;;;;;;;17.50;58.26;101476.75;4130184;28;20121;-65
2022/05/09 07:11:55;;;;;;;21.58;10.07;;;;;;;17.54;57.75;101481.13;4129949;28;19922;-62
2022/05/09 07:13:58;;;;;;;16.67;8.82;;;;;;;17.53;57.76;101478.50;4147594;28;20144;-63
2022/05/09 07:16:01;;;;;;;14.70;9.57;;;;;;;17.44;58.39;101480.22;4147178;28;20041;-62
2022/05/09 07:18:06;;;;;;;16.35;10.45;;;;;;;17.60;57.63;101475.00;4147211;28;20037;-62
2022/05/09 07:20:10;;;;;;;;;;;;;;;17.60;56.95;101475.88;4130068;28;20038;-73
2022/05/09 07:22:17;;;;;;;13.90;8.32;;;;;;;17.58;57.48;101474.13;4148314;28;19925;-70
2022/05/09 07:24:22;;;;;;;19.52;10.15;;;;;;;17.71;56.62;101482.91;4155738;28;20132;-71
2022/05/09 07:26:24;;;;;;;16.60;10.48;;;;;;;17.75;56.98;101477.63;4151260;28;20046;-70
2022/05/09 07:28:28;;;;;;;14.88;7.95;;;;;;;17.66;56.84;101469.75;4147327;28;20034;-70
2022/05/09 07:30:32;;;;;;;11.98;8.35;;;;;;;17.62;57.36;101482.03;4146854;28;20060;-70
2022/05/09 07:32:36;;;;;;;12.68;8.20;;;;;;;17.78;56.68;101477.66;4146188;28;20038;-73
2022/05/09 07:34:39;;;;;;;;;;;;;;;17.83;56.31;101476.78;4147602;28;20044;-59
2022/05/09 07:36:42;;;;;;;11.55;8.25;;;;;;;17.93;56.53;101473.28;4138699;28;20333;-59
2022/05/09 07:38:46;;;;;;;15.20;8.57;;;;;;;18.09;55.65;101474.16;4146280;28;20121;-59
2022/05/09 07:40:50;;;;;;;11.95;9.02;;;;;;;18.22;55.27;101473.28;4138837;28;20586;-61
2022/05/09 07:42:54;;;;;;;10.45;6.63;;;;;;;18.14;56.07;101477.69;4154141;28;20057;-59
2022/05/09 07:44:58;;;;;;;10.27;7.28;;;;;;;18.07;56.32;101476.81;4120334;28;20050;-59
2022/05/09 07:47:01;;;;;;;10.30;6.47;;;;;;;18.11;55.95;101478.56;4160301;28;20044;-60
2022/05/09 07:49:04;;;;;;;17.92;8.00;;;;;;;18.30;55.61;101475.91;4155065;28;20045;-60
2022/05/09 07:51:07;;;;;;;11.48;7.28;;;;;;;18.45;55.26;101473.25;4146224;28;20423;-59
2022/05/09 07:53:12;;;;;;;13.20;6.90;;;;;;;18.53;55.05;101485.50;4145840;28;20137;-59
2022/05/09 07:55:16;;;;;;;11.82;6.50;;;;;;;18.57;55.33;101482.00;4133631;28;20046;-59
2022/05/09 07:57:20;;;;;;;9.52;6.90;;;;;;;18.66;55.30;101484.59;4154984;28;20507;-59
2022/05/09 07:59:23;;;;;;;11.75;8.77;;;;;;;18.88;53.58;101484.56;4163742;28;20038;-59
2022/05/09 08:01:26;;;;;;;9.45;6.57;;;;;;;18.79;54.10;101490.72;4131898;28;20125;-59
2022/05/09 08:03:31;;;;;;;12.73;8.05;;;;;;;18.97;53.69;101495.97;4135567;28;20096;-60
2022/05/09 08:05:35;;;;;;;9.38;6.53;;;;;;;18.79;54.22;101485.44;4145540;28;20167;-60
2022/05/09 08:07:39;;;;;;;11.02;7.30;;;;;;;19.02;52.63;101485.38;4145615;28;20519;-59
2022/05/09 08:09:42;;;;;;;10.73;6.80;;;;;;;18.92;52.98;101491.59;4146121;28;20038;-61
2022/05/09 08:11:45;;;;;;;11.93;7.30;;;;;;;18.94;53.40;101487.16;4146126;28;20038;-61
2022/05/09 08:13:50;;;;;;;13.23;7.57;;;;;;;19.02;53.32;101490.66;4147016;28;20061;-61
2022/05/09 08:15:53;;;;;;;8.38;5.30;;;;;;;19.10;53.82;101483.59;4147024;28;20134;-61
2022/05/09 08:17:58;;;;;;;15.05;6.50;;;;;;;19.19;53.11;101480.91;4128404;28;20385;-62
2022/05/09 08:20:00;;;;;;;;;;;;;;;19.24;53.21;101485.28;4146029;28;20045;-61
2022/05/09 08:22:04;;;;;;;15.73;7.68;;;;;;;19.47;52.07;101477.25;4129190;28;19926;-59
2022/05/09 08:24:08;;;;;;;16.92;7.32;;;;;;;19.45;52.52;101477.25;4142185;28;20389;-61
2022/05/09 08:26:12;;;;;;;;;;;;;;;19.38;52.68;101483.47;4160446;28;20061;-61
2022/05/09 08:28:15;;;;;;;9.95;7.28;;;;;;;19.44;51.67;101483.41;4140234;28;19925;-62
2022/05/09 08:30:20;;;;;;;10.80;6.32;;;;;;;19.39;52.58;101482.59;4147707;28;20790;-62
2022/05/09 08:32:23;;;;;;;;;;;;;;;19.27;52.65;101485.28;4146622;28;20058;-62
2022/05/09 08:34:26;;;;;;;8.70;6.20;;;;;;;19.32;53.34;101484.38;4148660;28;19921;-61
2022/05/09 08:36:48;;;;;;;12.20;6.18;;;;;;;19.33;52.82;101486.13;4148865;28;20269;-61
2022/05/09 08:38:51;;;;;;;10.10;7.22;;;;;;;19.58;52.15;101483.34;4148914;28;20517;-62
2022/05/09 08:41:08;;;;;;;9.52;6.70;;;;;;;19.70;52.19;101485.00;4147646;28;20056;-62
2022/05/09 08:43:30;;;;;;;12.15;7.82;;;;;;;19.85;50.84;101474.34;4134717;28;20046;-62
2022/05/09 08:45:37;;;;;;;13.45;7.13;;;;;;;19.86;51.31;101478.75;4148117;28;20057;-61
2022/05/09 08:47:51;;;;;;;17.73;8.63;;;;;;;19.94;51.09;101477.81;4131988;28;20038;-61
2022/05/09 08:50:07;;;;;;;11.02;7.68;;;;;;;19.94;51.77;101483.09;4143542;28;20038;-61
2022/05/09 08:52:18;;;;;;;12.70;7.18;;;;;;;20.03;50.92;101485.66;4131571;28;20484;-61
2022/05/09 08:54:22;;;;;;;9.95;6.53;;;;;;;19.97;51.27;101478.66;4131340;28;20050;-61
2022/05/09 08:56:25;;;;;;;11.30;7.38;;;;;;;19.99;51.74;101482.19;4131517;28;20419;-62
2022/05/09 08:58:37;;;;;;;13.07;6.93;;;;;;;20.04;51.23;101483.00;4145443;28;20042;-61
2022/05/09 09:00:46;;;;;;;11.70;6.50;;;;;;;20.05;51.06;101483.88;4148314;28;20037;-62
2022/05/09 09:02:57;;;;;;;9.82;7.25;;;;;;;20.20;50.83;101475.81;4148905;28;20065;-61
2022/05/09 09:05:03;;;;;;;11.63;5.95;;;;;;;20.23;51.06;101480.19;4131101;28;20045;-61
2022/05/09 09:07:30;;;;;;;11.63;6.68;;;;;;;20.29;51.03;101479.28;4148694;28;20132;-61
2022/05/09 09:10:01;;;;;;;9.35;6.78;;;;;;;20.33;51.22;101481.00;4131230;28;20046;-61
2022/05/09 09:12:14;;;;;;;10.80;7.20;;;;;;;20.45;50.86;101480.00;4130481;28;20046;-61
2022/05/09 09:14:27;;;;;;;11.02;7.30;;;;;;;20.64;49.51;101478.03;4153208;28;20076;-61
2022/05/09 09:16:57;;;;;;;9.88;6.13;;;;;;;20.64;50.52;101480.66;4144886;28;20392;-62
2022/05/09 09:19:18;;;;;;;10.82;5.80;;;;;;;20.57;50.15;101475.44;4136463;28;20042;-62
2022/05/09 09:21:26;;;;;;;12.23;6.28;;;;;;;20.75;49.63;101477.03;4132126;28;20046;-62
2022/05/09 09:23:52;;;;;;;16.92;8.00;;;;;;;20.83;49.37;101476.94;4153409;28;20038;-62
2022/05/09 09:26:03;;;;;;;14.85;7.47;;;;;;;20.96;49.38;101477.66;4140717;28;20500;-62
2022/05/09 09:28:12;;;;;;;12.45;6.70;;;;;;;21.02;49.12;101476.72;4128986;28;20046;-62
2022/05/09 09:30:17;;;;;;;13.30;7.50;;;;;;;21.03;48.44;101474.03;4147196;28;20439;-62
2022/05/09 09:32:23;;;;;;;9.75;6.57;;;;;;;21.06;49.39;101473.13;4114243;28;20051;-62
2022/05/09 09:34:32;;;;;;;12.02;6.15;;;;;;;21.04;49.17;101474.91;4148600;28;20052;-62
2022/05/09 09:36:41;;;;;;;13.18;7.55;;;;;;;21.18;48.84;101470.31;4130788;28;20054;-62
2022/05/09 09:38:54;;;;;;;10.48;6.88;;;;;;;21.25;48.41;101469.34;4147053;28;20046;-62
2022/05/09 09:40:57;;;;;;;14.38;7.93;;;;;;;21.33;47.19;101468.34;4129109;28;20043;-62
2022/05/09 09:43:00;;;;;;;12.35;7.32;;;;;;;21.19;47.54;101466.78;4146885;28;20034;-62